Hauptseite
METAR-TAF:

METAR-TAF

Flughäfen :

Flughafen Taba

Taba, Ägypten

Breite: 29-35-57N, Länge: 034-46-36E, Höhe: 749 m

METAR: fehlend

Zeit: 00:41 (22:41 UTC)

Prognose

Neuester Wetterbericht von vor 5 Stunden und 41 Minuten, um 17:00 UTC
Gültige Prognose vom 25 um 18 UTC bis 26 um 24 UTC
Wind 12 kt aus Nord
Sichtweite 10 km oder mehr
keine Wolken unter 1500 m und keine Kumulonimbus oder Gewitterwolken
Übergehend zu
vom 25 um 22 UTC bis 25 um 21 UTC
Wind 3 kt aus unterschiedlichen Richtungen
Übergehend zu
vom 26 um 06 UTC bis 26 um 08 UTC
Wind 14 kt aus Nord/Nordost

TAF: HETB 251700Z 2518/2624 35012KT CAVOK BECMG 2522/2521 VRB03KT BECMG 2606/2608 02014KT

Wetterbeobachtungen und Prognosen von mehr als 4000 Flughäfen (METAR und TAF Bericht).

Die verfügbaren Stationen werden durch gelbe und rote Markierungen auf der Karte dargestellt.

Führen Sie die Maus auf sie, um den Namen der Station zu sehen.

Darauf klicken, um die Beobachtung von Wetterbeobachtungen und Prognosen zu sehen.

Um die Karte zu ändern : klicken Sie auf den grünen Tasten mit einem schwarzen Kreuz Zum Vergrößern, auf den grünen Button mit einem Gedankenstrich zu verkleinern, oder auf die grünen Pfeile für benachbarte Karten.


METAR-TAF: